createdAt,value
2022-10-26T00:01:15.476Z,4.80
2022-10-26T00:03:45.921Z,4.70
2022-10-26T00:06:18.437Z,5.15
2022-10-26T00:08:46.843Z,4.65
2022-10-26T00:11:14.952Z,5.28
2022-10-26T00:13:42.950Z,5.07
2022-10-26T00:16:23.191Z,5.22
2022-10-26T00:18:50.856Z,5.07
2022-10-26T00:21:18.827Z,5.38
2022-10-26T00:23:45.830Z,4.75
2022-10-26T00:26:12.705Z,5.57
2022-10-26T00:28:39.585Z,5.55
2022-10-26T00:31:13.224Z,5.00
2022-10-26T00:33:40.307Z,4.88
2022-10-26T00:36:09.936Z,4.72
2022-10-26T00:38:38.023Z,5.03
2022-10-26T00:41:05.196Z,5.25
2022-10-26T00:43:31.881Z,5.28
2022-10-26T00:46:01.656Z,5.03
2022-10-26T00:48:35.654Z,4.88
2022-10-26T00:51:10.385Z,5.03
2022-10-26T00:53:38.341Z,4.78
2022-10-26T00:56:05.793Z,5.22
2022-10-26T00:58:34.489Z,4.70
2022-10-26T01:01:01.216Z,4.85
2022-10-26T01:03:29.597Z,4.90
2022-10-26T01:05:58.128Z,4.90
2022-10-26T01:08:28.128Z,4.25
2022-10-26T01:10:58.007Z,4.55
2022-10-26T01:13:30.197Z,4.50
2022-10-26T01:16:12.763Z,4.78
2022-10-26T01:18:45.316Z,4.43
2022-10-26T01:21:31.077Z,4.00
2022-10-26T01:25:01.778Z,3.90
2022-10-26T01:27:42.402Z,3.72
2022-10-26T01:30:27.933Z,3.95
2022-10-26T01:33:13.246Z,3.47
2022-10-26T01:36:00.204Z,3.67
2022-10-26T01:38:54.451Z,3.38
2022-10-26T01:41:48.831Z,4.00
2022-10-26T01:44:41.715Z,3.17
2022-10-26T01:47:13.423Z,3.40
2022-10-26T01:49:47.147Z,3.20
2022-10-26T01:52:13.976Z,2.88
2022-10-26T01:54:40.805Z,3.40
2022-10-26T01:57:12.753Z,2.85
2022-10-26T02:00:04.857Z,3.15
2022-10-26T02:03:14.064Z,2.88
2022-10-26T02:06:14.056Z,2.95
2022-10-26T02:09:02.927Z,2.90
2022-10-26T02:11:48.012Z,2.80
2022-10-26T02:14:40.896Z,3.10
2022-10-26T02:17:28.883Z,2.60
2022-10-26T02:20:12.764Z,2.80
2022-10-26T02:22:47.095Z,2.97
2022-10-26T02:25:26.900Z,3.00
2022-10-26T02:28:00.283Z,2.83
2022-10-26T02:30:27.601Z,2.80
2022-10-26T02:32:58.014Z,3.17
2022-10-26T02:35:32.335Z,3.05
2022-10-26T02:38:04.016Z,2.83
2022-10-26T02:40:32.563Z,3.30
2022-10-26T02:43:10.704Z,3.50
2022-10-26T02:45:51.003Z,3.15
2022-10-26T02:48:18.896Z,3.13
2022-10-26T02:51:16.304Z,3.45
2022-10-26T02:54:13.151Z,3.22
2022-10-26T02:56:53.781Z,3.25
2022-10-26T02:59:24.556Z,3.47
2022-10-26T03:01:52.727Z,3.08
2022-10-26T03:04:19.735Z,2.90
2022-10-26T03:06:54.437Z,3.10
2022-10-26T03:09:23.550Z,2.60
2022-10-26T03:11:52.744Z,3.00
2022-10-26T03:14:20.179Z,3.10
2022-10-26T03:16:47.106Z,3.10
2022-10-26T03:19:13.955Z,2.80
2022-10-26T03:21:42.184Z,2.65
2022-10-26T03:24:10.199Z,2.70
2022-10-26T03:26:37.076Z,2.55
2022-10-26T03:29:04.212Z,2.60
2022-10-26T03:31:30.952Z,2.90
2022-10-26T03:33:57.729Z,2.50
2022-10-26T03:36:24.491Z,2.67
2022-10-26T03:38:51.243Z,2.65
2022-10-26T03:41:17.952Z,2.33
2022-10-26T03:43:44.677Z,2.38
2022-10-26T03:46:11.399Z,2.60
2022-10-26T03:48:38.191Z,2.60
2022-10-26T03:51:05.041Z,2.28
2022-10-26T03:53:31.848Z,2.35
2022-10-26T03:55:58.694Z,2.53
2022-10-26T04:00:57.159Z,2.15
2022-10-26T04:03:23.940Z,2.55
2022-10-26T04:05:50.771Z,2.50
2022-10-26T04:08:17.612Z,2.50
2022-10-26T04:10:46.379Z,2.58
2022-10-26T04:13:13.252Z,2.53
2022-10-26T04:15:40.054Z,2.60
2022-10-26T04:18:06.848Z,2.60
2022-10-26T04:20:36.534Z,2.67
2022-10-26T04:23:06.628Z,2.53
2022-10-26T04:25:34.077Z,2.60
2022-10-26T04:28:03.101Z,2.58
2022-10-26T04:30:30.293Z,2.78
2022-10-26T04:32:57.033Z,2.67
2022-10-26T04:35:24.279Z,2.63
2022-10-26T04:37:51.080Z,2.45
2022-10-26T04:40:18.090Z,2.97
2022-10-26T04:42:48.460Z,2.78
2022-10-26T04:45:16.607Z,2.83
2022-10-26T04:47:44.070Z,2.65
2022-10-26T04:50:13.297Z,2.67
2022-10-26T04:52:40.603Z,2.53
2022-10-26T04:55:08.207Z,2.75
2022-10-26T04:57:36.002Z,2.90
2022-10-26T05:00:05.290Z,2.63
2022-10-26T05:02:32.185Z,2.72
2022-10-26T05:04:59.211Z,2.45
2022-10-26T05:07:26.106Z,2.63
2022-10-26T05:09:52.939Z,2.30
2022-10-26T05:12:19.827Z,2.30
2022-10-26T05:14:46.611Z,2.40
2022-10-26T05:17:13.558Z,2.25
2022-10-26T05:19:40.522Z,2.28
2022-10-26T05:22:07.366Z,2.30
2022-10-26T05:24:34.112Z,2.67
2022-10-26T05:27:00.900Z,2.55
2022-10-26T05:29:27.617Z,2.35
2022-10-26T05:31:54.362Z,2.85
2022-10-26T05:34:21.132Z,2.92
2022-10-26T05:36:47.863Z,2.40
2022-10-26T05:39:14.568Z,3.00
2022-10-26T05:41:41.335Z,3.03
2022-10-26T05:44:08.055Z,3.20
2022-10-26T05:46:34.779Z,2.60
2022-10-26T05:49:01.519Z,3.30
2022-10-26T05:51:28.222Z,3.30
2022-10-26T05:53:55.054Z,3.10
2022-10-26T05:56:37.684Z,3.22
2022-10-26T05:59:14.894Z,3.33
2022-10-26T06:02:10.122Z,4.20
2022-10-26T06:04:43.109Z,3.25
2022-10-26T06:07:20.792Z,3.17
2022-10-26T06:09:48.664Z,3.65
2022-10-26T06:12:19.294Z,3.17
2022-10-26T06:14:47.466Z,3.20
2022-10-26T06:17:27.476Z,3.50
2022-10-26T06:20:22.084Z,3.55
2022-10-26T06:23:01.075Z,3.55
2022-10-26T06:25:48.586Z,3.38
2022-10-26T06:29:03.272Z,3.65
2022-10-26T06:31:30.035Z,3.47
2022-10-26T06:34:00.389Z,3.80
2022-10-26T06:36:29.011Z,3.80
2022-10-26T06:39:08.939Z,4.10
2022-10-26T06:41:36.949Z,3.75
2022-10-26T06:44:05.751Z,3.75
2022-10-26T06:46:39.561Z,3.55
2022-10-26T06:49:36.298Z,3.72
2022-10-26T06:52:24.196Z,4.15
2022-10-26T06:54:54.550Z,3.50
2022-10-26T06:57:29.794Z,3.85
2022-10-26T07:00:04.225Z,3.15
2022-10-26T07:02:31.135Z,3.20
2022-10-26T07:04:58.019Z,3.45
2022-10-26T07:07:29.820Z,3.30
2022-10-26T07:09:56.746Z,3.60
2022-10-26T07:12:23.536Z,3.58
2022-10-26T07:14:50.312Z,3.53
2022-10-26T07:17:17.154Z,3.50
2022-10-26T07:19:44.778Z,3.08
2022-10-26T07:22:11.765Z,3.28
2022-10-26T07:24:40.496Z,3.40
2022-10-26T07:27:07.452Z,3.38
2022-10-26T07:29:35.944Z,3.75
2022-10-26T07:32:03.199Z,3.20
2022-10-26T07:34:30.017Z,3.88
2022-10-26T07:36:59.289Z,3.25
2022-10-26T07:39:26.516Z,3.78
2022-10-26T07:41:53.518Z,4.00
2022-10-26T07:44:20.274Z,3.40
2022-10-26T07:46:47.018Z,3.58
2022-10-26T07:49:16.317Z,3.85
2022-10-26T07:51:46.078Z,3.50
2022-10-26T07:54:12.876Z,3.55
2022-10-26T07:56:39.600Z,4.13
2022-10-26T07:59:06.583Z,3.97
2022-10-26T08:01:33.461Z,4.22
2022-10-26T08:04:00.284Z,4.07
2022-10-26T08:06:27.013Z,3.90
2022-10-26T08:08:53.757Z,3.95
2022-10-26T08:11:21.184Z,4.22
2022-10-26T08:13:48.021Z,3.72
2022-10-26T08:16:14.900Z,4.28
2022-10-26T08:18:41.711Z,3.83
2022-10-26T08:21:21.693Z,4.07
2022-10-26T08:23:57.101Z,4.05
2022-10-26T08:26:23.873Z,3.67
2022-10-26T08:28:50.643Z,3.90
2022-10-26T08:31:17.364Z,3.75
2022-10-26T08:33:45.073Z,4.00
2022-10-26T08:36:13.677Z,4.30
2022-10-26T08:38:40.424Z,4.00
2022-10-26T08:41:09.374Z,3.55
2022-10-26T08:44:00.799Z,4.13
2022-10-26T08:46:42.278Z,3.70
2022-10-26T08:49:25.708Z,3.83
2022-10-26T08:51:58.405Z,3.67
2022-10-26T08:54:40.612Z,3.78
2022-10-26T08:57:24.341Z,3.90
2022-10-26T09:00:00.244Z,3.72
2022-10-26T09:02:27.247Z,3.55
2022-10-26T09:04:59.198Z,3.75
2022-10-26T09:07:42.869Z,3.65
2022-10-26T09:10:40.798Z,3.45
2022-10-26T09:13:38.969Z,3.03
2022-10-26T09:16:25.724Z,3.10
2022-10-26T09:19:50.752Z,3.47
2022-10-26T09:22:33.952Z,3.28
2022-10-26T09:25:17.765Z,2.85
2022-10-26T09:27:57.267Z,2.70
2022-10-26T09:30:24.645Z,3.13
2022-10-26T09:32:59.689Z,3.13
2022-10-26T09:35:35.309Z,2.80
2022-10-26T09:38:34.371Z,2.50
2022-10-26T09:41:32.066Z,2.47
2022-10-26T09:44:27.608Z,2.60
2022-10-26T09:47:12.869Z,2.67
2022-10-26T09:49:51.427Z,3.17
2022-10-26T09:52:18.266Z,2.55
2022-10-26T09:54:45.424Z,2.80
2022-10-26T09:57:16.486Z,2.47
2022-10-26T09:59:43.935Z,3.38
2022-10-26T10:02:39.972Z,3.08
2022-10-26T10:05:52.579Z,2.65
2022-10-26T10:08:27.932Z,2.53
2022-10-26T10:11:15.310Z,2.85
2022-10-26T10:13:46.422Z,3.20
2022-10-26T10:16:23.881Z,2.42
2022-10-26T10:18:57.082Z,2.97
2022-10-26T10:21:39.431Z,2.28
2022-10-26T10:24:34.899Z,2.55
2022-10-26T10:27:16.528Z,2.72
2022-10-26T10:29:50.457Z,2.83
2022-10-26T10:32:20.938Z,2.47
2022-10-26T10:34:50.199Z,2.50
2022-10-26T10:37:45.909Z,2.47
2022-10-26T10:40:21.285Z,2.22
2022-10-26T10:42:51.977Z,2.65
2022-10-26T10:45:29.684Z,2.75
2022-10-26T10:48:18.265Z,2.90
2022-10-26T10:51:12.414Z,2.63
2022-10-26T10:53:52.183Z,3.08
2022-10-26T10:56:47.293Z,2.90
2022-10-26T11:00:03.992Z,3.00
2022-10-26T11:03:22.090Z,2.42
2022-10-26T11:06:20.412Z,2.78
2022-10-26T11:09:07.413Z,2.67
2022-10-26T11:11:45.493Z,2.78
2022-10-26T11:14:34.180Z,3.10
2022-10-26T11:17:32.081Z,2.97
2022-10-26T11:20:15.041Z,2.30
2022-10-26T11:23:16.400Z,2.10
2022-10-26T11:26:03.380Z,2.33
2022-10-26T11:28:47.100Z,2.50
2022-10-26T11:31:23.121Z,2.75
2022-10-26T11:34:48.133Z,2.72
2022-10-26T11:37:34.574Z,2.40
2022-10-26T11:40:33.815Z,2.45
2022-10-26T11:43:08.371Z,2.38
2022-10-26T11:45:43.068Z,2.10
2022-10-26T11:48:15.664Z,2.25
2022-10-26T11:50:50.136Z,2.67
2022-10-26T11:53:22.112Z,2.53
2022-10-26T11:55:54.904Z,2.20
2022-10-26T11:58:28.124Z,2.30
2022-10-26T12:01:09.000Z,2.30
2022-10-26T12:03:48.397Z,2.50
2022-10-26T12:06:23.140Z,1.90
2022-10-26T12:09:15.937Z,2.30
2022-10-26T12:11:58.328Z,3.50
2022-10-26T12:14:55.877Z,2.05
2022-10-26T12:17:55.304Z,1.65
2022-10-26T12:20:54.779Z,1.70
2022-10-26T12:23:40.620Z,2.20
2022-10-26T12:26:28.624Z,2.28
2022-10-26T12:29:04.298Z,1.98
2022-10-26T12:31:37.218Z,1.80
2022-10-26T12:34:35.632Z,1.75
2022-10-26T12:37:02.319Z,1.63
2022-10-26T12:39:34.565Z,1.50
2022-10-26T12:42:30.043Z,1.90
2022-10-26T12:44:59.732Z,1.90
2022-10-26T12:47:29.714Z,2.10
2022-10-26T12:50:08.277Z,1.88
2022-10-26T12:52:57.832Z,1.98
2022-10-26T12:55:48.189Z,2.20
2022-10-26T12:58:45.570Z,2.38
2022-10-26T13:04:55.039Z,2.00
2022-10-26T13:07:26.944Z,1.73
2022-10-26T13:10:18.191Z,2.38
2022-10-26T13:12:56.956Z,2.42
2022-10-26T13:15:31.708Z,2.88
2022-10-26T13:18:09.548Z,2.45
2022-10-26T13:21:00.176Z,3.03
2022-10-26T13:23:34.334Z,2.60
2022-10-26T13:26:13.072Z,2.33
2022-10-26T13:28:39.993Z,3.08
2022-10-26T13:31:28.383Z,2.40
2022-10-26T13:34:05.571Z,2.38
2022-10-26T13:36:55.872Z,2.70
2022-10-26T13:39:29.123Z,2.55
2022-10-26T13:41:58.720Z,2.28
2022-10-26T13:44:47.909Z,2.28
2022-10-26T13:47:36.853Z,2.13
2022-10-26T13:50:14.500Z,5.47
2022-10-26T13:52:51.053Z,4.30
2022-10-26T13:55:28.592Z,2.42
2022-10-26T13:58:35.943Z,3.13
2022-10-26T14:01:21.337Z,3.42
2022-10-26T14:03:49.685Z,3.72
2022-10-26T14:06:52.639Z,2.22
2022-10-26T14:09:21.704Z,2.88
2022-10-26T14:11:55.097Z,5.18
2022-10-26T14:14:32.207Z,3.15
2022-10-26T14:17:00.210Z,1.73
2022-10-26T14:19:36.176Z,2.05
2022-10-26T14:22:04.425Z,1.90
2022-10-26T14:24:47.156Z,2.22
2022-10-26T14:27:20.754Z,1.55
2022-10-26T14:32:39.209Z,1.90
2022-10-26T14:35:11.096Z,1.60
2022-10-26T14:37:53.875Z,1.70
2022-10-26T14:40:27.295Z,1.50
2022-10-26T14:43:00.369Z,1.77
2022-10-26T14:45:54.365Z,1.40
2022-10-26T14:48:30.306Z,1.20
2022-10-26T14:51:01.696Z,1.60
2022-10-26T14:53:53.959Z,1.30
2022-10-26T14:56:35.607Z,1.70
2022-10-26T14:59:29.766Z,1.77
2022-10-26T15:02:19.379Z,1.73
2022-10-26T15:05:17.488Z,1.50
2022-10-26T15:07:45.483Z,1.70
2022-10-26T15:10:37.083Z,1.88
2022-10-26T15:13:31.188Z,1.70
2022-10-26T15:16:15.604Z,1.40
2022-10-26T15:18:44.560Z,1.75
2022-10-26T15:21:48.503Z,1.65
2022-10-26T15:24:20.804Z,1.75
2022-10-26T15:26:48.283Z,1.60
2022-10-26T15:30:25.895Z,1.85
2022-10-26T15:32:56.163Z,1.50
2022-10-26T15:35:31.167Z,1.73
2022-10-26T15:38:00.615Z,1.70
2022-10-26T15:40:30.456Z,1.50
2022-10-26T15:43:00.533Z,1.40
2022-10-26T15:45:51.991Z,1.83
2022-10-26T15:48:27.028Z,1.58
2022-10-26T15:50:53.755Z,1.77
2022-10-26T15:53:27.478Z,1.52
2022-10-26T15:55:57.647Z,1.35
2022-10-26T15:58:24.792Z,1.60
2022-10-26T16:00:51.910Z,1.55
2022-10-26T16:03:23.379Z,1.55
2022-10-26T16:06:02.859Z,1.30
2022-10-26T16:08:31.436Z,1.40
2022-10-26T16:10:58.469Z,1.60
2022-10-26T16:13:26.565Z,1.50
2022-10-26T16:15:53.515Z,1.30
2022-10-26T16:18:21.269Z,1.30
2022-10-26T16:20:48.107Z,1.90
2022-10-26T16:23:15.310Z,1.45
2022-10-26T16:25:45.883Z,1.38
2022-10-26T16:28:16.564Z,1.80
2022-10-26T16:30:44.246Z,1.50
2022-10-26T16:33:11.268Z,1.38
2022-10-26T16:35:38.291Z,2.72
2022-10-26T16:38:05.271Z,4.60
2022-10-26T16:40:32.087Z,7.75
2022-10-26T16:42:59.097Z,7.38
2022-10-26T16:45:25.943Z,2.97
2022-10-26T16:47:53.224Z,2.90
2022-10-26T16:50:22.003Z,4.13
2022-10-26T16:52:48.934Z,1.95
2022-10-26T16:55:16.738Z,1.50
2022-10-26T16:57:43.463Z,2.28
2022-10-26T17:00:10.719Z,4.72
2022-10-26T17:02:37.609Z,7.03
2022-10-26T17:05:07.202Z,3.42
2022-10-26T17:07:35.551Z,2.70
2022-10-26T17:10:02.320Z,2.75
2022-10-26T17:12:29.795Z,2.15
2022-10-26T17:14:58.751Z,2.33
2022-10-26T17:17:25.746Z,3.40
2022-10-26T17:19:52.462Z,3.65
2022-10-26T17:22:19.204Z,3.13
2022-10-26T17:24:45.952Z,4.65
2022-10-26T17:27:12.737Z,4.32
2022-10-26T17:29:39.464Z,2.90
2022-10-26T17:32:06.216Z,2.10
2022-10-26T17:34:32.939Z,2.05
2022-10-26T17:36:59.684Z,1.77
2022-10-26T17:39:26.841Z,2.38
2022-10-26T17:41:53.721Z,1.77
2022-10-26T17:44:20.633Z,2.60
2022-10-26T17:46:47.417Z,2.10
2022-10-26T17:49:14.219Z,2.20
2022-10-26T17:51:40.968Z,1.92
2022-10-26T17:54:07.872Z,2.28
2022-10-26T17:56:35.698Z,1.55
2022-10-26T17:59:06.126Z,1.95
2022-10-26T18:01:33.233Z,2.17
2022-10-26T18:04:00.932Z,2.97
2022-10-26T18:06:27.948Z,3.08
2022-10-26T18:08:57.742Z,2.80
2022-10-26T18:11:27.216Z,2.70
2022-10-26T18:13:56.262Z,2.60
2022-10-26T18:16:25.966Z,2.60
2022-10-26T18:19:00.321Z,2.38
2022-10-26T18:21:31.140Z,2.40
2022-10-26T18:23:58.106Z,2.20
2022-10-26T18:26:31.168Z,2.25
2022-10-26T18:29:00.563Z,1.90
2022-10-26T18:31:30.075Z,2.08
2022-10-26T18:34:00.362Z,2.67
2022-10-26T18:36:28.734Z,2.13
2022-10-26T18:38:56.371Z,2.30
2022-10-26T18:41:24.851Z,3.25
2022-10-26T18:43:55.010Z,2.80
2022-10-26T18:46:27.267Z,2.35
2022-10-26T18:48:59.112Z,2.10
2022-10-26T18:51:31.285Z,2.30
2022-10-26T18:53:59.245Z,2.15
2022-10-26T18:56:27.263Z,2.20
2022-10-26T18:58:58.648Z,2.20
2022-10-26T19:01:31.914Z,1.88
2022-10-26T19:04:06.108Z,1.83
2022-10-26T19:06:39.777Z,2.03
2022-10-26T19:09:07.721Z,2.15
2022-10-26T19:11:35.213Z,2.13
2022-10-26T19:14:02.132Z,1.90
2022-10-26T19:16:45.472Z,2.58
2022-10-26T19:19:14.320Z,2.40
2022-10-26T19:21:41.110Z,3.20
2022-10-26T19:24:17.781Z,2.85
2022-10-26T19:26:45.578Z,3.85
2022-10-26T19:29:16.026Z,3.55
2022-10-26T19:31:44.992Z,3.90
2022-10-26T19:34:13.793Z,4.10
2022-10-26T19:36:44.121Z,4.07
2022-10-26T19:39:11.773Z,3.17
2022-10-26T19:41:38.527Z,3.20
2022-10-26T19:44:06.547Z,2.63
2022-10-26T19:46:33.418Z,2.15
2022-10-26T19:49:02.231Z,2.45
2022-10-26T19:51:31.298Z,2.33
2022-10-26T19:54:03.182Z,2.72
2022-10-26T19:56:32.638Z,2.30
2022-10-26T19:58:59.640Z,2.40
2022-10-26T20:01:26.491Z,2.53
2022-10-26T20:03:53.563Z,2.60
2022-10-26T20:06:20.341Z,2.78
2022-10-26T20:08:49.108Z,2.75
2022-10-26T20:11:18.111Z,3.20
2022-10-26T20:13:47.103Z,2.70
2022-10-26T20:16:16.266Z,3.03
2022-10-26T20:18:47.546Z,2.25
2022-10-26T20:21:17.214Z,3.15
2022-10-26T20:23:45.228Z,3.22
2022-10-26T20:26:19.473Z,2.80
2022-10-26T20:28:53.031Z,2.53
2022-10-26T20:31:19.913Z,2.45
2022-10-26T20:33:53.366Z,2.55
2022-10-26T20:36:22.580Z,2.45
2022-10-26T20:38:49.875Z,3.03
2022-10-26T20:41:17.192Z,4.30
2022-10-26T20:43:44.405Z,3.90
2022-10-26T20:46:23.906Z,3.67
2022-10-26T20:48:52.298Z,3.35
2022-10-26T20:52:15.376Z,2.97
2022-10-26T20:55:15.125Z,3.72
2022-10-26T20:57:54.284Z,4.20
2022-10-26T21:00:21.363Z,4.00
2022-10-26T21:02:48.413Z,2.97
2022-10-26T21:05:18.210Z,3.05
2022-10-26T21:07:45.022Z,2.50
2022-10-26T21:10:11.771Z,2.10
2022-10-26T21:12:38.619Z,2.40
2022-10-26T21:15:06.371Z,2.13
2022-10-26T21:17:34.333Z,2.58
2022-10-26T21:20:01.051Z,3.10
2022-10-26T21:22:27.845Z,3.13
2022-10-26T21:24:54.620Z,2.45
2022-10-26T21:27:21.373Z,2.28
2022-10-26T21:29:48.088Z,2.35
2022-10-26T21:32:14.817Z,2.30
2022-10-26T21:34:41.543Z,2.40
2022-10-26T21:37:08.336Z,2.22
2022-10-26T21:39:35.052Z,2.85
2022-10-26T21:42:02.860Z,2.70
2022-10-26T21:44:44.826Z,2.60
2022-10-26T21:47:12.524Z,2.53
2022-10-26T21:52:11.623Z,2.47
2022-10-26T21:54:38.360Z,2.60
2022-10-26T21:57:05.109Z,2.60
2022-10-26T21:59:31.856Z,2.42
2022-10-26T22:01:58.692Z,3.00
2022-10-26T22:04:25.767Z,2.53
2022-10-26T22:06:52.548Z,2.80
2022-10-26T22:09:19.467Z,2.70
2022-10-26T22:11:46.233Z,2.75
2022-10-26T22:14:15.794Z,3.17
2022-10-26T22:16:42.587Z,3.10
2022-10-26T22:19:10.179Z,2.70
2022-10-26T22:21:41.463Z,3.05
2022-10-26T22:24:09.527Z,3.00
2022-10-26T22:26:37.273Z,2.80
2022-10-26T22:29:04.960Z,3.17
2022-10-26T22:31:38.942Z,2.97
2022-10-26T22:34:12.940Z,3.53
2022-10-26T22:36:39.715Z,3.47
2022-10-26T22:39:06.443Z,3.05
2022-10-26T22:41:33.184Z,3.50
2022-10-26T22:43:59.993Z,3.88
2022-10-26T22:46:28.518Z,3.92
2022-10-26T22:48:58.703Z,3.85
2022-10-26T22:51:32.147Z,3.50
2022-10-26T22:54:01.667Z,3.60
2022-10-26T22:56:31.560Z,4.50
2022-10-26T22:58:58.814Z,4.63
2022-10-26T23:01:30.951Z,4.85
2022-10-26T23:03:57.867Z,4.20
2022-10-26T23:06:28.507Z,4.72
2022-10-26T23:08:55.311Z,4.88
2022-10-26T23:11:26.816Z,4.32
2022-10-26T23:13:59.157Z,4.30
2022-10-26T23:16:27.739Z,4.57
2022-10-26T23:18:55.406Z,4.80
2022-10-26T23:21:24.921Z,4.68
2022-10-26T23:23:51.940Z,5.10
2022-10-26T23:26:21.313Z,5.43
2022-10-26T23:28:49.463Z,4.90
2022-10-26T23:31:21.376Z,4.70
2022-10-26T23:33:51.226Z,5.03
2022-10-26T23:36:18.624Z,4.80
2022-10-26T23:38:46.115Z,4.80
2022-10-26T23:41:13.379Z,4.82
2022-10-26T23:43:40.946Z,4.78
2022-10-26T23:46:07.694Z,4.65
2022-10-26T23:48:34.507Z,4.47
2022-10-26T23:51:01.387Z,4.32
2022-10-26T23:53:28.371Z,4.13
2022-10-26T23:55:55.319Z,4.50
2022-10-26T23:58:22.068Z,4.00
